Latest Coastal Weather Observations for Willis Island

IDQ60701

Issued at 1:32 pm EST Monday 26 September 2016 (issued every 10 minutes, with the page automatically refreshed every 10 minutes)

About coastal observations | Map of coastal stations | Coastal observations for QLD | Marine services | Other Formats
Station Details ID: 200283 Name: WILLIS ISLAND Lat: -16.29 Lon: 149.97 Height: 9.29 m
Data from the previous 72 hours. | See also: Recent months at Willis Island
Date/Time
EST
Temp
°C
Wind Pressure Rain since
9am
mm
Weather Cloud Vis
km
Sea
Height
m
Swell
Dir  Spd
kts
Gust
kts
hPa Trend Height
m
Period
s
Dir
26/01:30pm 28.0 ESE 5 6 1011.0 - 0.0 - - - - - - -
26/01:00pm 27.9 ESE 5 7 1011.3 - 0.0 - - - - - - -
26/12:30pm 28.5 SE 5 7 1011.5 - 0.0 - - - - - - -
26/12:00pm 27.9 ESE 6 7 1012.0 F 0.0 Fine Mostly clear 30 <0.5 0.7 8 E
26/11:30am 28.6 ESE 6 7 1012.5 - 0.0 - - - - - - -
26/11:00am 28.0 E 5 6 1013.0 - 0.0 - - - - - - -
26/10:30am 27.9 ESE 6 7 1013.2 - 0.0 - - - - - - -
26/10:00am 28.0 SE 6 8 1013.3 - 0.0 - - - - - - -
26/09:30am 27.8 ESE 5 7 1013.5 - 0.0 - - - - - - -
26/09:00am 27.9 SE 6 7 1013.7 R 0.0 Fine Partly cloudy 30 <0.5 0.7 8 E
26/08:30am 26.8 SE 5 7 1013.7 - 0.0 - - - - - - -
26/08:00am 26.4 E 5 6 1013.4 - 0.0 - - - - - - -
26/07:30am 26.2 E 4 6 1012.9 - 0.0 - - - - - - -
26/07:00am 26.6 ESE 5 7 1012.4 - 0.0 - - - - - - -
26/06:30am 25.7 ENE 6 7 1011.9 - 0.0 - - - - - - -
26/06:00am 25.4 ENE 6 7 1011.7 R 0.0 - - - - - - -
26/05:30am 25.2 ENE 7 9 1011.3 - 0.0 - - - - - - -
26/05:00am 25.1 NE 8 10 1010.9 - 0.0 - - - - - - -
26/04:30am 25.2 NE 10 12 1010.6 - 0.0 - - - - - - -
26/04:00am 25.1 NE 11 13 1010.2 - 0.0 - - - - - - -
26/03:30am 25.1 NE 10 12 1010.4 - 0.0 - - - - - - -
26/03:00am 25.2 NE 10 11 1010.5 F 0.0 - - - - - - -
26/02:30am 25.2 NE 9 11 1010.7 - 0.0 - - - - - - -
26/02:00am 25.3 NE 8 9 1011.0 - 0.0 - - - - - - -
26/01:30am 25.3 NE 9 10 1011.2 - 0.0 - - - - - - -
26/01:00am 25.3 NE 7 9 1011.4 - 0.0 - - - - - - -
26/12:30am 25.4 NE 8 10 1011.7 - 0.0 - - - - - - -
26/12:00am 25.4 ENE 8 9 1012.0 R 0.0 - - - - - - -
 
Date/Time
EST
Temp
°C
Wind Pressure Rain since
9am
mm
Weather Cloud Vis
km
Sea
Height
m
Swell
Dir  Spd
kts
Gust
kts
hPa Trend Height
m
Period
s
Dir
25/11:30pm 25.4 ENE 8 9 1012.2 - 0.0 - - - - - - -
25/11:00pm 25.5 ENE 7 9 1012.6 - 0.0 - - - - - - -
25/10:30pm 25.5 NE 7 8 1012.6 - 0.0 - - - - - - -
25/10:00pm 25.6 NE 8 9 1012.5 - 0.0 - - - - - - -
25/09:30pm 25.7 NE 9 10 1012.3 - 0.0 - - - - - - -
25/09:00pm 25.8 NE 10 11 1012.1 F 0.0 - - - - - - -
25/08:30pm 25.8 NE 8 9 1012.0 - 0.0 - - - - - - -
25/08:00pm 25.8 NE 7 9 1011.7 - 0.0 - - - - - - -
25/07:30pm 25.8 ENE 8 9 1011.4 - 0.0 - - - - - - -
25/07:00pm 25.8 ENE 7 8 1011.2 - 0.0 - - - - - - -
25/06:30pm 26.0 NE 6 7 1011.0 - 0.0 - - - - - - -
25/06:00pm 26.0 ENE 5 6 1010.8 F 0.0 Fine Mostly clear 30 <0.5 0.7 8 E
25/05:30pm 26.3 E 5 7 1010.5 - 0.0 - - - - - - -
25/05:00pm 26.8 ENE 5 7 1010.2 - 0.0 - - - - - - -
25/04:30pm 27.0 ENE 6 7 1010.0 - 0.0 - - - - - - -
25/04:00pm 27.7 NE 6 7 1009.8 - 0.0 - - - - - - -
25/03:30pm 27.7 ENE 4 5 1010.0 - 0.0 - - - - - - -
25/03:00pm 27.5 SE 4 5 1010.1 R 0.0 Fine Partly cloudy 30 <0.5 0.7 8 E
25/02:30pm 28.0 E 4 5 1010.2 - 0.0 - - - - - - -
25/02:00pm 28.5 NE 4 6 1010.4 - 0.0 - - - - - - -
25/01:30pm 27.8 NE 5 6 1010.5 - 0.0 - - - - - - -
25/01:00pm 28.5 NE 5 7 1010.7 - 0.0 - - - - - - -
25/12:30pm 28.2 NNE 6 7 1011.0 - 0.0 - - - - - - -
25/12:00pm 28.1 ENE 5 6 1011.5 S 0.0 Fine Mostly clear 30 <0.5 0.7 8 E
25/11:30am 28.2 NE 5 6 1012.1 - 0.0 - - - - - - -
25/11:00am 28.4 NE 7 8 1012.5 - 0.0 - - - - - - -
25/10:30am 27.7 NE 7 8 1012.8 - 0.0 - - - - - - -
25/10:00am 28.4 NE 7 8 1012.9 - 0.0 - - - - - - -
25/09:30am 27.6 NE 8 10 1012.9 - 0.0 - - - - - - -
25/09:00am 27.9 NE 8 9 1012.8 R 0.0 Fine Partly cloudy 30 <0.5 0.7 8 E
25/08:30am 26.4 NE 11 13 1012.5 - 0.0 - - - - - - -
25/08:00am 26.9 NE 12 14 1012.3 - 0.0 - - - - - - -
25/07:30am 26.3 NE 12 14 1011.9 - 0.0 - - - - - - -
25/07:00am 26.0 NE 12 15 1011.4 - 0.0 - - - - - - -
25/06:30am 25.4 NE 11 12 1011.0 - 0.0 - - - - - - -
25/06:00am 25.2 NE 12 14 1010.7 R 0.0 - - - - - - -
25/05:30am 25.2 NE 13 14 1010.3 - 0.0 - - - - - - -
25/05:00am 25.1 NE 12 14 1009.8 - 0.0 - - - - - - -
25/04:30am 25.2 NE 12 14 1009.5 - 0.0 - - - - - - -
25/04:00am 25.1 NE 13 17 1008.9 - 0.0 - - - - - - -
25/03:30am 25.0 NE 13 15 1008.9 - 0.0 - - - - - - -
25/03:00am 25.0 NE 13 15 1009.0 F 0.0 - - - - - - -
25/02:30am 25.1 NE 14 16 1009.2 - 0.0 - - - - - - -
25/02:00am 25.2 ENE 13 14 1009.4 - 0.0 - - - - - - -
25/01:30am 25.1 ENE 13 15 1009.7 - 0.0 - - - - - - -
25/01:00am 25.1 ENE 14 16 1010.1 - 0.0 - - - - - - -
25/12:30am 25.1 ENE 13 16 1010.4 - 0.0 - - - - - - -
25/12:00am 25.1 ENE 11 14 1010.8 F 0.0 - - - - - - -
 
Date/Time
EST
Temp
°C
Wind Pressure Rain since
9am
mm
Weather Cloud Vis
km
Sea
Height
m
Swell
Dir  Spd
kts
Gust
kts
hPa Trend Height
m
Period
s
Dir
24/11:30pm 25.0 ENE 11 13 1011.2 - 0.0 - - - - - - -
24/11:00pm 25.1 E 10 12 1011.5 - 0.0 - - - - - - -
24/10:30pm 25.1 E 11 13 1011.7 - 0.0 - - - - - - -
24/10:00pm 25.2 E 11 13 1011.8 - 0.0 - - - - - - -
24/09:30pm 25.2 E 11 13 1011.8 - 0.0 - - - - - - -
24/09:00pm 25.3 ENE 11 14 1011.6 F 0.0 - - - - - - -
24/08:30pm 25.2 E 10 12 1011.6 - 0.0 - - - - - - -
24/08:00pm 25.3 E 11 13 1011.2 - 0.0 - - - - - - -
24/07:30pm 25.4 E 11 13 1010.9 - 0.0 - - - - - - -
24/07:00pm 25.4 ENE 11 13 1010.7 - 0.0 - - - - - - -
24/06:30pm 25.6 ENE 12 14 1010.3 - 0.0 - - - - - - -
24/06:00pm 25.6 ENE 11 14 1010.1 F 0.0 Fine Mostly clear 30 1 0.8 7 E
24/05:30pm 25.8 E 11 13 1009.9 - 0.0 - - - - - - -
24/05:00pm 26.2 E 11 13 1009.9 - 0.0 - - - - - - -
24/04:30pm 26.7 E 11 13 1009.7 - 0.0 - - - - - - -
24/04:00pm 27.0 E 11 13 1009.5 - 0.0 - - - - - - -
24/03:30pm 27.1 E 12 14 1009.5 - 0.0 - - - - - - -
24/03:00pm 27.6 E 12 14 1009.6 F 0.0 Fine Mostly clear 30 1 0.8 7 E
24/02:30pm 27.4 E 13 15 1009.7 - 0.0 - - - - - - -
24/02:00pm 27.6 E 14 16 1010.1 - 0.0 - - - - - - -
24/01:30pm 28.3 ENE 13 15 1010.5 - 0.0 - - - - - - -
24/01:00pm 27.9 E 12 14 1010.9 - 0.0 - - - - - - -
24/12:30pm 28.5 ENE 11 13 1011.3 - 0.0 - - - - - - -
24/12:00pm 27.8 ENE 11 13 1011.7 S 0.0 Haze Partly cloudy 25 1 0.8 7 E
24/11:30am 27.7 ENE 12 14 1012.1 - 0.0 - - - - - - -
24/11:00am 28.1 ENE 12 14 1012.5 - 0.0 - - - - - - -
24/10:30am 27.7 ENE 13 15 1012.8 - 0.0 - - - - - - -
24/10:00am 27.6 ENE 15 17 1012.9 - 0.0 - - - - - - -
24/09:30am 27.4 ENE 15 17 1012.9 - 0.0 - - - - - - -
24/09:00am 27.4 ENE 13 14 1013.0 F 0.0 Haze Partly cloudy 25 1 0.8 7 E
24/08:30am 26.8 NE 16 17 1012.8 - 0.0 - - - - - - -
24/08:00am 26.4 ENE 13 15 1012.7 - 0.0 - - - - - - -
24/07:30am 26.2 ENE 13 14 1012.4 - 0.0 - - - - - - -
24/07:00am 25.9 ENE 12 14 1012.1 - 0.0 - - - - - - -
24/06:30am 25.6 ENE 13 15 1011.7 - 0.0 - - - - - - -
24/06:00am 25.2 ENE 13 14 1011.4 R 0.0 - - - - - - -
24/05:30am 25.1 ENE 13 15 1010.9 - 0.0 - - - - - - -
24/05:00am 25.0 ENE 15 17 1010.4 - 0.0 - - - - - - -
24/04:30am 25.1 ENE 15 17 1010.2 - 0.0 - - - - - - -
24/04:00am 25.1 ENE 15 17 1009.9 - 0.0 - - - - - - -
24/03:30am 25.1 ENE 14 16 1009.9 - 0.0 - - - - - - -
24/03:00am 25.0 E 13 15 1009.9 R 0.0 - - - - - - -
24/02:30am 25.0 ENE 13 15 1009.9 - 0.0 - - - - - - -
24/02:00am 25.1 E 13 15 1010.3 - 0.0 - - - - - - -
24/01:30am 25.1 ENE 12 15 1010.4 - 0.0 - - - - - - -
24/01:00am 25.0 ENE 13 15 1010.6 - 0.0 - - - - - - -
24/12:30am 25.0 ENE 11 13 1010.9 - 0.0 - - - - - - -
24/12:00am 25.0 ENE 11 13 1011.0 F 0.0 - - - - - - -
 
Date/Time
EST
Temp
°C
Wind Pressure Rain since
9am
mm
Weather Cloud Vis
km
Sea
Height
m
Swell
Dir  Spd
kts
Gust
kts
hPa Trend Height
m
Period
s
Dir
23/11:30pm 25.1 ENE 11 13 1011.3 - 0.0 - - - - - - -
23/11:00pm 25.1 ENE 10 12 1011.7 - 0.0 - - - - - - -
23/10:30pm 25.1 ENE 10 12 1011.8 - 0.0 - - - - - - -
23/10:00pm 25.1 E 10 11 1011.9 - 0.0 - - - - - - -
23/09:30pm 25.2 ENE 10 12 1012.0 - 0.0 - - - - - - -
23/09:00pm 25.3 E 12 13 1011.9 F 0.0 - - - - - - -
23/08:30pm 25.3 E 12 13 1011.8 - 0.0 - - - - - - -
23/08:00pm 25.3 E 12 14 1011.7 - 0.0 - - - - - - -
23/07:30pm 25.4 E 12 14 1011.6 - 0.0 - - - - - - -
23/07:00pm 25.3 E 12 14 1011.4 - 0.0 - - - - - - -
23/06:30pm 25.4 E 11 13 1010.9 - 0.0 - - - - - - -
23/06:00pm 25.5 E 11 13 1010.6 F 0.0 Haze Mostly clear 20 1 1.2 8 E
23/05:30pm 25.6 E 10 12 1010.3 - 0.0 - - - - - - -
23/05:00pm 26.1 E 10 12 1010.1 - 0.0 - - - - - - -
23/04:30pm 25.9 E 11 13 1010.0 - 0.0 - - - - - - -
23/04:00pm 26.4 E 9 11 1009.9 - 0.0 - - - - - - -
23/03:30pm 27.3 E 9 11 1010.0 - 0.0 - - - - - - -
23/03:00pm 27.8 ESE 10 11 1010.2 R 0.0 Distant precip. Mostly clear 30 1 1.2 8 E
23/02:30pm 28.0 ESE 9 11 1010.5 - 0.0 - - - - - - -
23/02:00pm 27.7 ESE 9 11 1010.9 - 0.0 - - - - - - -

Other Formats:

Comma delimited format used in spreadsheet applications
http://www.bom.gov.au/fwo/IDQ60701/IDQ60701.94299.axf

JavaScript Object Notation format (JSON) in row-major order
http://www.bom.gov.au/fwo/IDQ60701/IDQ60701.94299.json